Latest Weather Observations for Roma

IDQ60801

Issued at 7:32 pm EST Saturday 1 August 2015 (issued every 30 minutes, with the page automatically refreshed every 10 minutes)

About weather observations | Map of weather stations | Latest weather observations for QLD | Other Formats
Station Details ID: 043091 Name: ROMA AIRPORT Lat: -26.55 Lon: 148.77 Height: 307.38 m
Data from the previous 72 hours. | See also: Recent months at Roma
Date/Time
EST
Temp
°C
App
Temp
°C
Dew
Point
Rel
Hum
%
Delta-T
°C
Wind Press
QNH
hPa
Press
MSL
hPa
Rain
since 9 am
mm
Dir
 
Spd
km/h
Gust
km/h
Spd
kts
Gust
kts
01/07:30pm 14.4 10.7 2.3 44 5.4 N 11 11 6 6 1020.9 1020.7 0.0
01/07:00pm 15.3 11.8 1.4 39 6.2 NNE 9 11 5 6 1020.7 1020.5 0.0
01/06:30pm 17.7 15.5 0.8 32 7.6 ENE 2 6 1 3 1020.3 1020.2 0.0
01/06:00pm 19.4 15.8 0.4 28 8.5 ENE 9 11 5 6 1019.9 1019.7 0.0
01/05:30pm 21.5 17.5 0.7 25 9.6 NE 11 13 6 7 1019.7 1019.5 0.0
01/05:00pm 24.4 19.9 0.0 20 11.3 NE 13 17 7 9 1019.7 1019.5 0.0
01/04:30pm 25.5 21.1 0.2 19 11.9 NNE 13 17 7 9 1019.5 1019.3 0.0
01/04:00pm 25.6 21.1 -0.5 18 12.1 N 13 19 7 10 1019.4 1019.2 0.0
01/03:30pm 26.2 21.7 0.0 18 12.4 NNE 13 19 7 10 1019.5 1019.3 0.0
01/03:00pm 26.1 21.4 0.7 19 12.1 N 15 28 8 15 1019.6 1019.4 0.0
01/02:30pm 26.1 20.9 0.0 18 12.3 NNE 17 28 9 15 1019.9 1019.7 0.0
01/02:00pm 25.5 20.6 -0.5 18 12.0 NNE 15 24 8 13 1020.1 1019.9 0.0
01/01:30pm 25.0 20.5 -0.2 19 11.7 NNE 13 22 7 12 1020.7 1020.5 0.0
01/01:00pm 25.4 20.8 1.5 21 11.5 N 15 20 8 11 1021.1 1020.9 0.0
01/12:30pm 25.1 20.8 1.3 21 11.4 NNE 13 22 7 12 1021.7 1021.5 0.0
01/12:00pm 24.6 19.2 1.5 22 11.0 N 19 28 10 15 1022.1 1021.9 0.0
01/11:30am 24.2 18.8 2.4 24 10.6 NNE 20 28 11 15 1022.6 1022.4 0.0
01/11:00am 23.1 17.6 2.0 25 10.0 NNE 20 30 11 16 1022.9 1022.7 0.0
01/10:30am 22.9 17.6 2.9 27 9.7 NNE 20 26 11 14 1023.4 1023.3 0.0
01/10:00am 21.6 16.4 2.3 28 9.1 NNE 19 24 10 13 1023.5 1023.4 0.0
01/09:30am 20.3 16.0 3.1 32 8.2 NNE 15 19 8 10 1023.5 1023.6 0.0
01/09:00am 15.6 13.4 5.5 51 4.9 NE 6 9 3 5 1023.5 1023.6 0.0
01/08:30am 11.7 9.9 5.6 66 2.9 NE 4 7 2 4 1023.4 1023.5 0.0
01/08:00am 8.3 7.0 4.3 76 1.8 CALM 0 4 0 2 1023.4 1023.5 0.0
01/07:30am 5.2 2.6 3.4 88 0.8 NNE 6 7 3 4 1023.2 1023.3 0.0
01/07:00am 3.0 -0.2 0.9 86 0.8 NNE 7 9 4 5 1022.8 1022.9 0.0
01/06:30am 3.3 0.4 1.5 88 0.7 N 6 9 3 5 1022.7 1022.8 0.0
01/06:00am 3.5 1.7 1.4 86 0.8 CALM 0 0 0 0 1022.3 1022.3 0.0
01/05:30am 3.8 1.7 1.7 86 0.8 N 2 6 1 3 1022.1 1022.1 0.0
01/05:00am 3.0 0.4 0.7 85 0.9 NNE 4 7 2 4 1022.1 1022.1 0.0
01/04:30am 3.4 0.4 1.1 85 0.9 N 6 7 3 4 1021.9 1021.9 0.0
01/04:00am 3.5 0.4 1.1 84 0.9 N 7 9 4 5 1021.8 1021.8 0.0
01/03:30am 3.6 0.5 1.2 84 0.9 N 7 7 4 4 1022.0 1022.0 0.0
01/03:00am 4.5 1.6 1.4 80 1.2 N 6 7 3 4 1022.2 1022.2 0.0
01/02:30am 4.3 1.5 1.8 84 1.0 NNE 6 7 3 4 1022.5 1022.6 0.0
01/02:00am 4.7 1.9 1.9 82 1.1 NNE 6 6 3 3 1022.7 1022.8 0.0
01/01:30am 4.9 2.8 1.9 81 1.2 N 2 9 1 5 1022.9 1023.0 0.0
01/01:00am 5.3 3.6 2.1 80 1.3 CALM 0 0 0 0 1023.1 1023.2 0.0
01/12:30am 5.1 3.4 1.6 78 1.4 CALM 0 0 0 0 1022.8 1022.9 0.0
01/12:00am 6.5 4.9 2.2 74 1.8 CALM 0 0 0 0 1022.9 1023.0 0.0
 
Date/Time
EST
Temp
°C
App
Temp
°C
Dew
Point
Rel
Hum
%
Delta-T
°C
Wind Press
QNH
hPa
Press
MSL
hPa
Rain
since 9 am
mm
Dir
 
Spd
km/h
Gust
km/h
Spd
kts
Gust
kts
31/11:30pm 6.8 5.1 1.7 70 2.1 CALM 0 0 0 0 1022.8 1022.9 0.0
31/11:00pm 7.5 5.8 1.6 66 2.4 CALM 0 0 0 0 1022.9 1023.0 0.0
31/10:30pm 6.2 4.4 1.1 70 2.1 CALM 0 0 0 0 1022.9 1023.0 0.0
31/10:00pm 7.8 6.1 2.1 67 2.4 CALM 0 0 0 0 1022.9 1023.0 0.0
31/09:30pm 8.3 6.6 1.9 64 2.7 CALM 0 0 0 0 1022.8 1022.9 0.0
31/09:00pm 6.8 4.9 0.7 65 2.4 CALM 0 0 0 0 1022.7 1022.8 0.0
31/08:30pm 9.6 8.1 2.9 63 2.9 CALM 0 0 0 0 1022.5 1022.6 0.0
31/08:00pm 9.6 7.7 0.8 54 3.6 CALM 0 0 0 0 1022.4 1022.5 0.0
31/07:30pm 11.0 9.1 0.4 48 4.4 CALM 0 0 0 0 1022.2 1022.2 0.0
31/07:00pm 14.0 11.7 0.3 39 5.8 SSE 2 6 1 3 1021.9 1021.9 0.0
31/06:30pm 15.4 12.2 -0.8 33 6.9 SSE 6 7 3 4 1021.6 1021.6 0.0
31/06:00pm 16.4 12.9 -1.2 30 7.4 S 7 9 4 5 1021.3 1021.3 0.0
31/05:30pm 19.7 15.9 -0.9 25 9.1 S 9 11 5 6 1021.1 1021.1 0.0
31/05:00pm 21.8 17.5 -1.5 21 10.3 SSW 11 15 6 8 1021.0 1021.0 0.0
31/04:30pm 23.1 18.6 -0.4 21 10.7 SW 13 19 7 10 1020.9 1020.9 0.0
31/04:00pm 23.3 19.6 -0.2 21 10.8 S 9 13 5 7 1020.8 1020.8 0.0
31/03:30pm 23.4 18.9 -0.1 21 10.8 SSW 13 20 7 11 1020.8 1020.8 0.0
31/03:00pm 24.1 20.0 -0.2 20 11.2 WSW 11 17 6 9 1021.0 1021.0 0.0
31/02:30pm 23.7 20.0 0.1 21 10.9 WSW 9 15 5 8 1021.1 1021.1 0.0
31/02:00pm 24.0 20.4 0.4 21 11.0 WSW 9 17 5 9 1021.3 1021.3 0.0
31/01:30pm 23.1 18.8 0.9 23 10.4 SW 13 24 7 13 1021.7 1021.7 0.0
31/01:00pm 23.4 20.3 1.1 23 10.5 WNW 7 15 4 8 1022.3 1022.3 0.0
31/12:30pm 23.3 19.6 2.2 25 10.1 WNW 11 26 6 14 1022.7 1022.8 0.0
31/12:00pm 22.8 19.8 1.8 25 9.9 W 7 17 4 9 1023.2 1023.3 0.0
31/11:30am 22.1 19.9 3.3 29 9.1 WNW 4 11 2 6 1023.6 1023.7 0.0
31/11:00am 21.7 18.2 3.4 30 8.9 NW 11 19 6 10 1024.1 1024.1 0.0
31/10:30am 20.9 17.4 3.6 32 8.4 N 11 20 6 11 1024.6 1024.6 0.0
31/10:00am 19.3 15.3 3.1 34 7.7 N 13 19 7 10 1024.9 1024.9 0.0
31/09:30am 16.1 13.7 5.1 48 5.3 NNE 7 11 4 6 1025.2 1025.3 0.0
31/09:00am 12.8 11.1 4.0 55 4.0 N 2 9 1 5 1025.1 1025.2 0.0
31/08:30am 9.9 8.8 5.3 73 2.1 CALM 0 4 0 2 1024.6 1024.6 0.0
31/08:00am 6.6 4.1 3.6 81 1.3 NE 6 7 3 4 1024.5 1024.5 0.0
31/07:30am 4.2 1.4 2.9 91 0.5 N 7 9 4 5 1024.3 1024.3 0.0
31/07:00am 2.4 0.6 0.9 90 0.6 CALM 0 0 0 0 1024.1 1024.1 0.0
31/06:30am 1.8 -0.2 -0.4 85 0.8 CALM 0 0 0 0 1023.6 1023.7 0.0
31/06:00am 2.8 1.0 1.3 90 0.6 CALM 0 0 0 0 1023.0 1023.1 0.0
31/05:30am 1.9 0.0 0.4 90 0.6 CALM 0 0 0 0 1022.7 1022.8 0.0
31/05:00am 3.7 2.1 2.4 91 0.5 CALM 0 0 0 0 1022.4 1022.5 0.0
31/04:30am 2.6 0.0 0.7 87 0.7 N 4 7 2 4 1022.4 1022.5 0.0
31/04:00am 3.6 0.6 2.0 89 0.6 N 7 9 4 5 1022.3 1022.3 0.0
31/03:30am 3.3 0.4 1.7 89 0.6 N 6 7 3 4 1022.8 1022.9 0.0
31/03:00am 3.2 0.7 1.4 88 0.7 NNE 4 7 2 4 1023.1 1023.2 0.0
31/02:30am 3.8 2.0 1.4 84 1.0 CALM 0 0 0 0 1023.5 1023.6 0.0
31/02:00am 4.7 3.1 2.7 87 0.8 CALM 0 0 0 0 1023.4 1023.5 0.0
31/01:30am 4.8 3.2 2.5 85 0.9 CALM 0 0 0 0 1023.6 1023.7 0.0
31/01:00am 5.3 3.0 3.0 85 1.0 NNE 4 7 2 4 1023.6 1023.7 0.0
31/12:30am 5.4 3.1 2.9 84 1.0 N 4 7 2 4 1024.0 1024.0 0.0
31/12:00am 5.7 2.9 3.2 84 1.1 N 7 9 4 5 1024.2 1024.2 0.0
 
Date/Time
EST
Temp
°C
App
Temp
°C
Dew
Point
Rel
Hum
%
Delta-T
°C
Wind Press
QNH
hPa
Press
MSL
hPa
Rain
since 9 am
mm
Dir
 
Spd
km/h
Gust
km/h
Spd
kts
Gust
kts
30/11:30pm 6.0 3.2 3.2 82 1.2 NNE 7 9 4 5 1024.5 1024.5 0.0
30/11:00pm 5.5 4.0 2.8 83 1.1 CALM 0 0 0 0 1024.6 1024.6 0.0
30/10:30pm 8.4 6.8 2.6 67 2.5 CALM 0 0 0 0 1024.7 1024.7 0.0
30/10:00pm 6.3 4.8 2.8 78 1.5 CALM 0 0 0 0 1024.8 1024.8 0.0
30/09:30pm 7.6 6.0 2.7 71 2.1 CALM 0 0 0 0 1024.7 1024.7 0.0
30/09:00pm 11.1 9.8 3.9 61 3.2 CALM 0 0 0 0 1024.6 1024.6 0.0
30/08:30pm 12.1 9.7 4.1 58 3.7 NE 6 7 3 4 1024.5 1024.5 0.0
30/08:00pm 10.8 8.1 3.8 62 3.1 NE 7 9 4 5 1024.4 1024.4 0.0
30/07:30pm 11.9 9.6 2.6 53 4.1 ENE 4 7 2 4 1024.4 1024.4 0.0
30/07:00pm 13.1 10.4 3.5 52 4.4 E 7 9 4 5 1024.2 1024.2 0.0
30/06:30pm 13.1 10.2 2.6 49 4.7 ESE 7 9 4 5 1024.0 1024.0 0.0
30/06:00pm 15.0 11.2 1.9 41 5.8 SSW 11 15 6 8 1023.8 1023.9 0.0
30/05:30pm 18.1 14.9 0.7 31 7.8 SW 7 9 4 5 1023.7 1023.8 0.0
30/05:00pm 21.5 19.5 0.1 24 9.7 CALM 0 0 0 0 1023.4 1023.5 0.0
30/04:30pm 21.3 18.0 -0.1 24 9.7 E 7 11 4 6 1023.2 1023.3 0.0
30/04:00pm 21.6 18.4 -0.4 23 9.9 W 6 13 3 7 1023.5 1023.6 0.0
30/03:30pm 21.6 18.0 0.8 25 9.6 WSW 9 13 5 7 1023.5 1023.6 0.0
30/03:00pm 21.6 17.9 0.2 24 9.7 WNW 9 15 5 8 1023.6 1023.7 0.0
30/02:30pm 21.9 18.7 1.0 25 9.7 NW 7 9 4 5 1023.7 1023.8 0.0
30/02:00pm 21.0 17.6 1.8 28 9.0 WSW 9 15 5 8 1024.4 1024.4 0.0
30/01:30pm 21.4 18.3 1.6 27 9.3 N 7 15 4 8 1024.8 1024.8 0.0
30/01:00pm 20.6 17.4 2.9 31 8.4 NE 9 13 5 7 1025.2 1025.3 0.0
30/12:30pm 20.2 17.0 3.0 32 8.2 NNW 9 17 5 9 1025.7 1025.8 0.0
30/12:00pm 19.7 16.4 2.6 32 8.0 NNE 9 19 5 10 1026.3 1026.4 0.0
30/11:30am 19.2 16.0 3.0 34 7.7 NE 9 17 5 9 1026.9 1027.0 0.0
30/11:00am 18.5 14.8 4.3 39 6.8 NNE 13 20 7 11 1027.4 1027.4 0.0
30/10:30am 18.1 14.8 6.3 46 5.9 N 13 17 7 9 1027.8 1027.8 0.0
30/10:00am 16.5 13.3 6.9 53 4.8 NNE 13 19 7 10 1028.0 1028.1 0.0
30/09:30am 15.0 11.4 6.6 57 4.2 N 15 19 8 10 1028.0 1028.1 0.0
30/09:00am 13.0 10.8 7.9 71 2.5 N 9 13 5 7 1027.9 1028.0 0.0
30/08:30am 9.5 8.5 5.7 77 1.8 CALM 0 0 0 0 1027.9 1028.0 0.0
30/08:00am 6.1 4.9 4.4 89 0.7 CALM 0 0 0 0 1027.7 1027.7 0.0
30/07:30am 3.1 1.4 1.9 92 0.5 CALM 0 4 0 2 1027.6 1027.6 0.0
30/07:00am 1.4 -0.6 0.2 92 0.4 CALM 0 0 0 0 1027.2 1027.3 0.0
30/06:30am 0.9 -1.1 -0.4 91 0.5 CALM 0 0 0 0 1027.0 1027.1 0.0
30/06:00am 1.4 -0.9 0.1 91 0.5 SW 2 7 1 4 1026.9 1027.0 0.0
30/05:30am 1.5 -1.6 -0.1 89 0.6 NW 6 7 3 4 1026.7 1026.8 0.0
30/05:00am 1.8 -1.5 0.3 90 0.6 N 7 9 4 5 1026.6 1026.7 0.0
30/04:30am 2.7 0.6 1.4 91 0.5 WSW 2 7 1 4 1027.0 1027.1 0.0
30/04:00am 2.5 -0.7 0.7 88 0.7 SW 7 9 4 5 1027.0 1027.1 0.0
30/03:30am 3.9 0.2 2.1 88 0.7 SW 11 11 6 6 1026.9 1027.0 0.0
30/03:00am 4.2 1.3 2.7 90 0.6 SSW 7 9 4 5 1027.0 1027.1 0.0
30/02:30am 3.8 2.2 2.2 89 0.6 CALM 0 0 0 0 1027.0 1027.1 0.0
30/02:00am 4.5 1.7 3.0 90 0.6 W 7 9 4 5 1027.4 1027.4 0.0
30/01:30am 3.5 1.8 1.9 89 0.6 CALM 0 0 0 0 1027.7 1027.7 0.0
30/01:00am 4.2 1.8 2.4 88 0.7 ENE 4 7 2 4 1028.3 1028.4 0.0
30/12:30am 4.2 1.6 1.2 81 1.2 SW 4 7 2 4 1028.8 1028.9 0.0
30/12:00am 4.5 1.8 2.4 86 0.9 SSW 6 7 3 4 1028.9 1029.0 0.0
 
Date/Time
EST
Temp
°C
App
Temp
°C
Dew
Point
Rel
Hum
%
Delta-T
°C
Wind Press
QNH
hPa
Press
MSL
hPa
Rain
since 9 am
mm
Dir
 
Spd
km/h
Gust
km/h
Spd
kts
Gust
kts
29/11:30pm 6.0 2.8 3.2 82 1.2 SSW 9 11 5 6 1029.2 1029.3 0.0
29/11:00pm 5.7 3.4 2.7 81 1.2 S 4 7 2 4 1028.8 1028.9 0.0
29/10:30pm 7.4 5.8 2.5 71 2.1 CALM 0 0 0 0 1028.8 1028.9 0.0
29/10:00pm 7.8 6.4 3.7 75 1.8 CALM 0 0 0 0 1028.9 1029.0 0.0
29/09:30pm 8.5 7.2 4.1 74 2.0 CALM 0 0 0 0 1028.8 1028.9 0.0
29/09:00pm 9.5 8.2 3.9 68 2.5 CALM 0 6 0 3 1028.8 1028.9 0.0
29/08:30pm 9.9 8.2 3.9 66 2.7 E 2 6 1 3 1028.8 1028.9 0.0
29/08:00pm 10.5 7.5 4.0 64 2.9 SE 9 11 5 6 1028.7 1028.8 0.0

Other Formats:

Comma delimited format used in spreadsheet applications
http://www.bom.gov.au/fwo/IDQ60801/IDQ60801.94515.axf

JavaScript Object Notation format (JSON) in row-major order
http://www.bom.gov.au/fwo/IDQ60801/IDQ60801.94515.json